WetterOnline ( https://www.wetteronline.de )

Wetter aktuell Catona

Aktuelles Wetter: Messina (51m)

6-stündlich | Neueste Meldungen
Ortszeit Temperatur Wetter
So, 07.03. 19:00 13.2° C leicht bewölkt
So, 07.03. 13:00 15.4° C leicht bewölkt
So, 07.03. 7:00 11.0° C fast wolkenlos
So, 07.03. 1:00 13.6° C leicht bewölkt
Sa, 06.03. 19:00 14.0° C wolkig
Sa, 06.03. 13:00 18.0° C wolkig
Sa, 06.03. 7:00 12.2° C wolkig
Sa, 06.03. 1:00 12.2° C wolkig
Ortszeit Temperatur Wetter
So, 07.03. 22:00 13.0° C wolkig
So, 07.03. 21:55 13° C bewölkt
So, 07.03. 21:00 13.0° C leicht bewölkt
So, 07.03. 20:55 13° C leicht bewölkt
So, 07.03. 20:00 13.0° C leicht bewölkt
So, 07.03. 19:55 13° C leicht bewölkt
So, 07.03. 19:00 13.2° C leicht bewölkt
So, 07.03. 18:55 13° C leicht bewölkt
So, 07.03. 18:00 13.4° C leicht bewölkt
Ortszeit Relative Feuchte Sichtweite
So, 07.03. 19:00 73% 14 km
So, 07.03. 13:00 57% 16 km
So, 07.03. 7:00 68% 14 km
So, 07.03. 1:00 62% 12 km
Sa, 06.03. 19:00 75% 16 km
Sa, 06.03. 13:00 23% 20 km
Sa, 06.03. 7:00 54% 20 km
Sa, 06.03. 1:00 67% 10 km
Ortszeit Relative Feuchte Sichtweite
So, 07.03. 22:00 75% 10 km
So, 07.03. 21:55 77% >10 km
So, 07.03. 21:00 75% 10 km
So, 07.03. 20:55 77% >10 km
So, 07.03. 20:00 74% 10 km
So, 07.03. 19:55 72% >10 km
So, 07.03. 19:00 73% 14 km
So, 07.03. 18:55 72% >10 km
So, 07.03. 18:00 73% 10 km
Ortszeit Niederschlagsmenge Niederschlagsart
So, 07.03. 19:00 0.0 l/m2 in 12 Std. -
So, 07.03. 13:00 0.0 l/m2 in 6 Std. -
So, 07.03. 7:00 0.0 l/m2 in 12 Std. -
So, 07.03. 1:00 0.0 l/m2 in 6 Std. -
Sa, 06.03. 19:00 0.0 l/m2 in 12 Std. -
Sa, 06.03. 13:00 0.0 l/m2 in 6 Std. -
Sa, 06.03. 7:00 0.0 l/m2 in 12 Std. -
Sa, 06.03. 1:00 0.0 l/m2 in 6 Std. -
Ortszeit Niederschlagsmenge Niederschlagsart
So, 07.03. 22:00 keine Meldung -
So, 07.03. 21:55 keine Meldung -
So, 07.03. 21:00 keine Meldung -
So, 07.03. 20:55 keine Meldung -
So, 07.03. 20:00 keine Meldung -
So, 07.03. 19:55 keine Meldung -
So, 07.03. 19:00 keine Meldung -
So, 07.03. 18:55 keine Meldung -
So, 07.03. 18:00 keine Meldung -
Ortszeit Stärke Spitze Richtung
km/h Bft. km/h Grad Sektor
So, 07.03. 19:00 13 3 - 220° SW
So, 07.03. 13:00 19 3 - 200° S
So, 07.03. 7:00 2 1 - 200° S
So, 07.03. 1:00 9 2 - 210° SW
Sa, 06.03. 19:00 4 1 - 130° SO
Sa, 06.03. 13:00 11 2 - 360° N
Sa, 06.03. 7:00 9 2 - 300° NW
Sa, 06.03. 1:00 6 1 - 330° NW
Ortszeit Stärke Spitze Richtung
km/h Bft. km/h Grad Sektor
So, 07.03. 22:00 15 3 - 210° SW
So, 07.03. 21:55 15 3 - 210° SW
So, 07.03. 21:00 11 2 - 210° SW
So, 07.03. 20:55 11 2 - 210° SW
So, 07.03. 20:00 13 3 - 210° SW
So, 07.03. 19:55 13 3 - 210° SW
So, 07.03. 19:00 13 3 - 220° SW
So, 07.03. 18:55 13 3 - 220° SW
So, 07.03. 18:00 15 3 - 220° SW
Ortszeit Untergrenze Bedeckung Gattung
total tief tief mittel hoch
So, 07.03. 19:00 600 m 3/8 3/8 Sc - -
So, 07.03. 13:00 750 m 3/8 2/8 Sc - Ci
So, 07.03. 7:00 900 m 1/8 1/8 Sc - -
So, 07.03. 1:00 900 m 5/8 3/8 Sc As -
Sa, 06.03. 19:00 900 m 6/8 4/8 Sc As -
Sa, 06.03. 13:00 1200 m 6/8 1/8 Sc Ac -
Sa, 06.03. 7:00 900 m 5/8 1/8 Sc Ac -
Sa, 06.03. 1:00 900 m 5/8 2/8 Sc As -
Ortszeit Bedeckungsgrad in Achtel und Wolkenuntergrenze
So, 07.03. 22:00 5(600m) 4(2400m)
So, 07.03. 21:55 5-7(600m)
So, 07.03. 21:00 3(600m)
So, 07.03. 20:55 3-4(600m)
So, 07.03. 20:00 3(600m)
So, 07.03. 19:55 3-4(600m)
So, 07.03. 19:00 3(600m)
So, 07.03. 18:55 3-4(600m)
So, 07.03. 18:00 3(600m)
Ortszeit Luftdruck NN (hPa) Tendenz (hPa in 3 Std.)
So, 07.03. 19:00 1021 - 0,5
So, 07.03. 13:00 1024 - 1,0
So, 07.03. 7:00 1024 - 0,1
So, 07.03. 1:00 1024 + 0,2
Sa, 06.03. 19:00 1023 + 1,0
Sa, 06.03. 13:00 1022 + 0,7
Sa, 06.03. 7:00 1020 + 0,8
Sa, 06.03. 1:00 1019 - 0,9
Ortszeit Luftdruck NN (hPa) Tendenz (hPa in 3 Std.)
So, 07.03. 22:00 1021 - 0,6
So, 07.03. 21:55 1020 keine Meldung
So, 07.03. 21:00 1021 - 0,6
So, 07.03. 20:55 1020 keine Meldung
So, 07.03. 20:00 1021 - 0,4
So, 07.03. 19:55 1021 keine Meldung
So, 07.03. 19:00 1021 - 0,5
So, 07.03. 18:55 1021 keine Meldung
So, 07.03. 18:00 1021 - 0,7
Ortszeit Schneehöhe (cm)
So, 07.03. 19:00 -
So, 07.03. 13:00 -
So, 07.03. 7:00 0
So, 07.03. 1:00 -
Sa, 06.03. 19:00 -
Sa, 06.03. 13:00 -
Sa, 06.03. 7:00 0
Sa, 06.03. 1:00 -
Ortszeit Schneehöhe (cm)
So, 07.03. 22:00 -
So, 07.03. 21:55 -
So, 07.03. 21:00 -
So, 07.03. 20:55 -
So, 07.03. 20:00 -
So, 07.03. 19:55 -
So, 07.03. 19:00 -
So, 07.03. 18:55 -
So, 07.03. 18:00 -
Link zu dieser Seite / Seite empfehlen

Das Wetter in ...